sensor_id;sensor_type;location;lat;lon;timestamp;temperature;humidity
67557;DHT22;54387;53.526;49.300;2022-09-20T00:00:49;16.60;64.20
67557;DHT22;54387;53.526;49.300;2022-09-20T00:03:16;16.60;64.20
67557;DHT22;54387;53.526;49.300;2022-09-20T00:05:44;16.70;64.00
67557;DHT22;54387;53.526;49.300;2022-09-20T00:08:15;16.70;63.90
67557;DHT22;54387;53.526;49.300;2022-09-20T00:10:41;16.70;63.90
67557;DHT22;54387;53.526;49.300;2022-09-20T00:13:10;16.70;63.70
67557;DHT22;54387;53.526;49.300;2022-09-20T00:15:44;16.70;63.20
67557;DHT22;54387;53.526;49.300;2022-09-20T00:18:11;16.70;63.10
67557;DHT22;54387;53.526;49.300;2022-09-20T00:20:45;16.60;63.00
67557;DHT22;54387;53.526;49.300;2022-09-20T00:23:12;16.60;63.00
67557;DHT22;54387;53.526;49.300;2022-09-20T00:25:38;16.60;63.10
67557;DHT22;54387;53.526;49.300;2022-09-20T00:28:05;16.50;63.10
67557;DHT22;54387;53.526;49.300;2022-09-20T00:30:32;16.50;63.10
67557;DHT22;54387;53.526;49.300;2022-09-20T00:32:58;16.40;62.80
67557;DHT22;54387;53.526;49.300;2022-09-20T00:35:24;16.40;62.80
67557;DHT22;54387;53.526;49.300;2022-09-20T00:37:50;16.30;62.90
67557;DHT22;54387;53.526;49.300;2022-09-20T00:40:19;16.30;62.80
67557;DHT22;54387;53.526;49.300;2022-09-20T00:42:46;16.20;62.80
67557;DHT22;54387;53.526;49.300;2022-09-20T00:45:21;16.10;62.90
67557;DHT22;54387;53.526;49.300;2022-09-20T00:48:04;16.00;63.00
67557;DHT22;54387;53.526;49.300;2022-09-20T00:53:06;15.90;63.40
67557;DHT22;54387;53.526;49.300;2022-09-20T00:55:36;15.80;63.70
67557;DHT22;54387;53.526;49.300;2022-09-20T00:58:03;15.70;63.90
67557;DHT22;54387;53.526;49.300;2022-09-20T01:00:30;15.70;63.70
67557;DHT22;54387;53.526;49.300;2022-09-20T01:03:01;15.60;64.30
67557;DHT22;54387;53.526;49.300;2022-09-20T01:05:29;15.60;63.70
67557;DHT22;54387;53.526;49.300;2022-09-20T01:07:56;15.50;63.80
67557;DHT22;54387;53.526;49.300;2022-09-20T01:10:22;15.40;63.90
67557;DHT22;54387;53.526;49.300;2022-09-20T01:12:50;15.40;64.10
67557;DHT22;54387;53.526;49.300;2022-09-20T01:15:17;15.30;64.40
67557;DHT22;54387;53.526;49.300;2022-09-20T01:17:47;15.30;64.60
67557;DHT22;54387;53.526;49.300;2022-09-20T01:20:30;15.20;64.90
67557;DHT22;54387;53.526;49.300;2022-09-20T01:28:31;15.00;65.60
67557;DHT22;54387;53.526;49.300;2022-09-20T01:31:12;15.00;65.70
67557;DHT22;54387;53.526;49.300;2022-09-20T01:33:52;14.90;66.00
67557;DHT22;54387;53.526;49.300;2022-09-20T01:36:49;14.90;66.10
67557;DHT22;54387;53.526;49.300;2022-09-20T01:39:25;14.80;66.10
67557;DHT22;54387;53.526;49.300;2022-09-20T01:42:03;14.80;66.40
67557;DHT22;54387;53.526;49.300;2022-09-20T01:44:58;14.80;66.60
67557;DHT22;54387;53.526;49.300;2022-09-20T02:07:36;14.50;67.80
67557;DHT22;54387;53.526;49.300;2022-09-20T02:12:52;14.40;68.00
67557;DHT22;54387;53.526;49.300;2022-09-20T02:21:21;14.50;68.50
67557;DHT22;54387;53.526;49.300;2022-09-20T02:27:08;14.50;68.50
67557;DHT22;54387;53.526;49.300;2022-09-20T02:32:42;14.50;68.50
67557;DHT22;54387;53.526;49.300;2022-09-20T02:44:01;14.40;68.60
67557;DHT22;54387;53.526;49.300;2022-09-20T02:52:03;14.30;69.10
67557;DHT22;54387;53.526;49.300;2022-09-20T03:00:39;14.10;69.40
67557;DHT22;54387;53.526;49.300;2022-09-20T03:03:30;14.10;69.60
67557;DHT22;54387;53.526;49.300;2022-09-20T03:06:16;14.10;69.80
67557;DHT22;54387;53.526;49.300;2022-09-20T03:08:57;14.00;69.80
67557;DHT22;54387;53.526;49.300;2022-09-20T03:14:30;14.10;70.10
67557;DHT22;54387;53.526;49.300;2022-09-20T03:17:46;14.10;70.10
67557;DHT22;54387;53.526;49.300;2022-09-20T03:20:28;14.10;70.20
67557;DHT22;54387;53.526;49.300;2022-09-20T03:36:23;14.50;69.80
67557;DHT22;54387;53.526;49.300;2022-09-20T03:41:56;14.70;69.40
67557;DHT22;54387;53.526;49.300;2022-09-20T03:49:46;14.80;68.60
67557;DHT22;54387;53.526;49.300;2022-09-20T03:58:13;15.00;67.60
67557;DHT22;54387;53.526;49.300;2022-09-20T04:06:42;15.20;66.20
67557;DHT22;54387;53.526;49.300;2022-09-20T04:14:56;15.50;64.90
67557;DHT22;54387;53.526;49.300;2022-09-20T04:17:41;15.60;64.50
67557;DHT22;54387;53.526;49.300;2022-09-20T04:26:02;15.90;63.10
67557;DHT22;54387;53.526;49.300;2022-09-20T04:28:45;15.90;62.60
67557;DHT22;54387;53.526;49.300;2022-09-20T04:31:35;16.00;62.10
67557;DHT22;54387;53.526;49.300;2022-09-20T04:34:21;16.10;61.30
67557;DHT22;54387;53.526;49.300;2022-09-20T04:36:59;16.10;60.80
67557;DHT22;54387;53.526;49.300;2022-09-20T04:39:48;16.20;61.00
67557;DHT22;54387;53.526;49.300;2022-09-20T04:53:28;16.50;60.10
67557;DHT22;54387;53.526;49.300;2022-09-20T04:59:09;16.60;59.80
67557;DHT22;54387;53.526;49.300;2022-09-20T05:11:00;16.80;58.10
67557;DHT22;54387;53.526;49.300;2022-09-20T05:22:45;16.90;57.40
67557;DHT22;54387;53.526;49.300;2022-09-20T05:25:21;16.90;56.90
67557;DHT22;54387;53.526;49.300;2022-09-20T05:31:08;17.00;56.40
67557;DHT22;54387;53.526;49.300;2022-09-20T05:41:41;17.10;56.80
67557;DHT22;54387;53.526;49.300;2022-09-20T05:47:19;17.20;57.10
67557;DHT22;54387;53.526;49.300;2022-09-20T05:52:53;17.30;57.70
67557;DHT22;54387;53.526;49.300;2022-09-20T06:00:45;17.60;58.40
67557;DHT22;54387;53.526;49.300;2022-09-20T06:06:17;17.70;58.60
67557;DHT22;54387;53.526;49.300;2022-09-20T06:17:25;17.40;58.70
67557;DHT22;54387;53.526;49.300;2022-09-20T06:20:27;17.30;59.10
67557;DHT22;54387;53.526;49.300;2022-09-20T06:22:57;17.30;59.30
67557;DHT22;54387;53.526;49.300;2022-09-20T06:30:45;17.70;58.10
67557;DHT22;54387;53.526;49.300;2022-09-20T06:33:14;17.70;57.50
67557;DHT22;54387;53.526;49.300;2022-09-20T06:35:45;17.70;57.20
67557;DHT22;54387;53.526;49.300;2022-09-20T06:41:20;17.80;57.30
67557;DHT22;54387;53.526;49.300;2022-09-20T06:43:57;17.80;56.70
67557;DHT22;54387;53.526;49.300;2022-09-20T06:46:28;17.90;55.80
67557;DHT22;54387;53.526;49.300;2022-09-20T06:48:55;17.90;55.20
67557;DHT22;54387;53.526;49.300;2022-09-20T06:51:23;17.80;55.70
67557;DHT22;54387;53.526;49.300;2022-09-20T06:53:50;17.60;55.40
67557;DHT22;54387;53.526;49.300;2022-09-20T06:56:19;17.50;55.20
67557;DHT22;54387;53.526;49.300;2022-09-20T06:58:47;17.30;55.20
67557;DHT22;54387;53.526;49.300;2022-09-20T07:01:14;17.20;55.10
67557;DHT22;54387;53.526;49.300;2022-09-20T07:03:41;17.20;54.40
67557;DHT22;54387;53.526;49.300;2022-09-20T07:06:08;17.10;53.40
67557;DHT22;54387;53.526;49.300;2022-09-20T07:08:35;17.10;53.40
67557;DHT22;54387;53.526;49.300;2022-09-20T07:11:05;17.10;53.30
67557;DHT22;54387;53.526;49.300;2022-09-20T07:13:33;17.20;53.70
67557;DHT22;54387;53.526;49.300;2022-09-20T07:16:02;17.20;53.80
67557;DHT22;54387;53.526;49.300;2022-09-20T07:18:29;17.30;53.50
67557;DHT22;54387;53.526;49.300;2022-09-20T07:20:56;17.40;52.60
67557;DHT22;54387;53.526;49.300;2022-09-20T07:23:26;17.50;52.20
67557;DHT22;54387;53.526;49.300;2022-09-20T07:25:55;17.60;52.30
67557;DHT22;54387;53.526;49.300;2022-09-20T07:28:24;17.60;52.30
67557;DHT22;54387;53.526;49.300;2022-09-20T07:30:51;17.70;52.40
67557;DHT22;54387;53.526;49.300;2022-09-20T07:33:17;17.80;52.40
67557;DHT22;54387;53.526;49.300;2022-09-20T07:35:47;17.80;51.30
67557;DHT22;54387;53.526;49.300;2022-09-20T07:38:14;17.80;50.90
67557;DHT22;54387;53.526;49.300;2022-09-20T07:40:40;17.80;50.60
67557;DHT22;54387;53.526;49.300;2022-09-20T07:43:07;17.80;50.30
67557;DHT22;54387;53.526;49.300;2022-09-20T07:45:35;17.80;50.30
67557;DHT22;54387;53.526;49.300;2022-09-20T07:48:07;17.90;50.00
67557;DHT22;54387;53.526;49.300;2022-09-20T07:50:35;17.90;50.00
67557;DHT22;54387;53.526;49.300;2022-09-20T07:53:01;18.00;50.10
67557;DHT22;54387;53.526;49.300;2022-09-20T07:55:29;18.10;49.60
67557;DHT22;54387;53.526;49.300;2022-09-20T07:57:56;18.20;49.20
67557;DHT22;54387;53.526;49.300;2022-09-20T08:00:22;18.40;49.30
67557;DHT22;54387;53.526;49.300;2022-09-20T08:02:56;18.50;49.10
67557;DHT22;54387;53.526;49.300;2022-09-20T08:05:24;18.70;48.80
67557;DHT22;54387;53.526;49.300;2022-09-20T08:07:50;18.80;48.30
67557;DHT22;54387;53.526;49.300;2022-09-20T08:10:16;19.00;47.90
67557;DHT22;54387;53.526;49.300;2022-09-20T08:12:42;19.10;47.40
67557;DHT22;54387;53.526;49.300;2022-09-20T08:15:10;19.20;46.80
67557;DHT22;54387;53.526;49.300;2022-09-20T08:17:36;19.20;46.60
67557;DHT22;54387;53.526;49.300;2022-09-20T08:20:02;19.30;46.00
67557;DHT22;54387;53.526;49.300;2022-09-20T08:22:30;19.30;45.20
67557;DHT22;54387;53.526;49.300;2022-09-20T08:24:57;19.30;44.80
67557;DHT22;54387;53.526;49.300;2022-09-20T08:27:24;19.30;44.90
67557;DHT22;54387;53.526;49.300;2022-09-20T08:29:50;19.30;45.00
67557;DHT22;54387;53.526;49.300;2022-09-20T08:32:16;19.40;45.20
67557;DHT22;54387;53.526;49.300;2022-09-20T08:34:43;19.40;44.80
67557;DHT22;54387;53.526;49.300;2022-09-20T08:37:09;19.40;44.90
67557;DHT22;54387;53.526;49.300;2022-09-20T08:39:36;19.50;45.00
67557;DHT22;54387;53.526;49.300;2022-09-20T08:42:45;19.60;45.20
67557;DHT22;54387;53.526;49.300;2022-09-20T08:45:06;19.70;44.70
67557;DHT22;54387;53.526;49.300;2022-09-20T08:47:46;19.80;44.30
67557;DHT22;54387;53.526;49.300;2022-09-20T08:50:14;19.80;44.10
67557;DHT22;54387;53.526;49.300;2022-09-20T08:52:47;19.90;44.30
67557;DHT22;54387;53.526;49.300;2022-09-20T08:55:18;20.00;44.10
67557;DHT22;54387;53.526;49.300;2022-09-20T08:57:50;20.00;44.20
67557;DHT22;54387;53.526;49.300;2022-09-20T09:00:21;20.20;44.20
67557;DHT22;54387;53.526;49.300;2022-09-20T09:02:51;20.30;43.60
67557;DHT22;54387;53.526;49.300;2022-09-20T09:07:57;20.50;43.90
67557;DHT22;54387;53.526;49.300;2022-09-20T09:10:29;20.70;43.80
67557;DHT22;54387;53.526;49.300;2022-09-20T09:12:59;20.80;43.60
67557;DHT22;54387;53.526;49.300;2022-09-20T09:15:36;20.90;43.80
67557;DHT22;54387;53.526;49.300;2022-09-20T09:18:04;20.90;43.90
67557;DHT22;54387;53.526;49.300;2022-09-20T09:20:40;20.90;43.80
67557;DHT22;54387;53.526;49.300;2022-09-20T09:23:22;21.10;44.10
67557;DHT22;54387;53.526;49.300;2022-09-20T09:25:54;21.30;44.00
67557;DHT22;54387;53.526;49.300;2022-09-20T09:28:25;21.60;43.20
67557;DHT22;54387;53.526;49.300;2022-09-20T09:31:11;21.60;43.20
67557;DHT22;54387;53.526;49.300;2022-09-20T09:33:42;22.10;43.20
67557;DHT22;54387;53.526;49.300;2022-09-20T09:36:13;22.40;42.00
67557;DHT22;54387;53.526;49.300;2022-09-20T09:38:42;22.40;41.90
67557;DHT22;54387;53.526;49.300;2022-09-20T09:41:30;22.20;42.20
67557;DHT22;54387;53.526;49.300;2022-09-20T09:44:04;22.10;42.50
67557;DHT22;54387;53.526;49.300;2022-09-20T09:46:35;22.00;42.50
67557;DHT22;54387;53.526;49.300;2022-09-20T09:49:22;21.90;42.70
67557;DHT22;54387;53.526;49.300;2022-09-20T09:52:13;21.70;42.80
67557;DHT22;54387;53.526;49.300;2022-09-20T09:54:49;21.60;43.10
67557;DHT22;54387;53.526;49.300;2022-09-20T09:57:43;21.50;43.30
67557;DHT22;54387;53.526;49.300;2022-09-20T10:00:21;21.40;43.30
67557;DHT22;54387;53.526;49.300;2022-09-20T10:22:02;22.60;41.60
67557;DHT22;54387;53.526;49.300;2022-09-20T10:27:21;22.80;39.40
67557;DHT22;54387;53.526;49.300;2022-09-20T10:30:01;22.70;39.50
67557;DHT22;54387;53.526;49.300;2022-09-20T10:32:57;22.60;39.70
67557;DHT22;54387;53.526;49.300;2022-09-20T10:38:15;22.20;40.30
67557;DHT22;54387;53.526;49.300;2022-09-20T10:55:17;21.60;42.50
67557;DHT22;54387;53.526;49.300;2022-09-20T10:58:14;21.50;42.90
67557;DHT22;54387;53.526;49.300;2022-09-20T11:04:10;21.30;43.80
67557;DHT22;54387;53.526;49.300;2022-09-20T11:07:16;21.30;44.70
67557;DHT22;54387;53.526;49.300;2022-09-20T11:10:12;21.20;45.50
67557;DHT22;54387;53.526;49.300;2022-09-20T11:12:47;20.90;46.00
67557;DHT22;54387;53.526;49.300;2022-09-20T11:15:29;20.70;47.10
67557;DHT22;54387;53.526;49.300;2022-09-20T11:18:03;20.50;47.90
67557;DHT22;54387;53.526;49.300;2022-09-20T11:20:39;20.30;48.60
67557;DHT22;54387;53.526;49.300;2022-09-20T11:23:16;20.10;49.20
67557;DHT22;54387;53.526;49.300;2022-09-20T11:25:51;19.90;49.50
67557;DHT22;54387;53.526;49.300;2022-09-20T11:28:34;19.80;50.50
67557;DHT22;54387;53.526;49.300;2022-09-20T11:37:00;19.40;52.50
67557;DHT22;54387;53.526;49.300;2022-09-20T11:41:56;19.40;53.70
67557;DHT22;54387;53.526;49.300;2022-09-20T11:44:25;19.40;53.30
67557;DHT22;54387;53.526;49.300;2022-09-20T11:47:04;19.40;53.30
67557;DHT22;54387;53.526;49.300;2022-09-20T11:52:38;19.50;53.80
67557;DHT22;54387;53.526;49.300;2022-09-20T11:58:12;19.70;53.90
67557;DHT22;54387;53.526;49.300;2022-09-20T12:00:47;19.70;53.90
67557;DHT22;54387;53.526;49.300;2022-09-20T12:03:49;19.80;54.10
67557;DHT22;54387;53.526;49.300;2022-09-20T12:06:32;19.80;54.00
67557;DHT22;54387;53.526;49.300;2022-09-20T12:11:49;19.70;54.50
67557;DHT22;54387;53.526;49.300;2022-09-20T12:14:20;19.70;54.60
67557;DHT22;54387;53.526;49.300;2022-09-20T12:16:48;19.60;54.60
67557;DHT22;54387;53.526;49.300;2022-09-20T12:24:27;19.40;56.40
67557;DHT22;54387;53.526;49.300;2022-09-20T12:26:59;19.40;55.50
67557;DHT22;54387;53.526;49.300;2022-09-20T12:32:32;19.40;55.70
67557;DHT22;54387;53.526;49.300;2022-09-20T12:34:58;19.40;55.90
67557;DHT22;54387;53.526;49.300;2022-09-20T12:37:25;19.40;55.80
67557;DHT22;54387;53.526;49.300;2022-09-20T12:39:53;19.50;56.00
67557;DHT22;54387;53.526;49.300;2022-09-20T12:42:31;19.50;56.10
67557;DHT22;54387;53.526;49.300;2022-09-20T12:45:04;19.50;55.90
67557;DHT22;54387;53.526;49.300;2022-09-20T12:47:36;19.60;56.30
67557;DHT22;54387;53.526;49.300;2022-09-20T12:50:12;19.60;56.60
67557;DHT22;54387;53.526;49.300;2022-09-20T12:52:57;19.50;56.60
67557;DHT22;54387;53.526;49.300;2022-09-20T12:57:59;19.50;56.80
67557;DHT22;54387;53.526;49.300;2022-09-20T13:00:39;19.50;56.70
67557;DHT22;54387;53.526;49.300;2022-09-20T13:06:20;19.50;56.70
67557;DHT22;54387;53.526;49.300;2022-09-20T13:09:02;19.50;56.80
67557;DHT22;54387;53.526;49.300;2022-09-20T13:14:15;19.50;56.60
67557;DHT22;54387;53.526;49.300;2022-09-20T13:19:46;19.90;56.00
67557;DHT22;54387;53.526;49.300;2022-09-20T13:22:19;20.10;55.40
67557;DHT22;54387;53.526;49.300;2022-09-20T13:24:56;20.30;55.20
67557;DHT22;54387;53.526;49.300;2022-09-20T13:30:25;20.30;54.70
67557;DHT22;54387;53.526;49.300;2022-09-20T13:32:52;20.20;55.00
67557;DHT22;54387;53.526;49.300;2022-09-20T13:37:59;19.90;55.50
67557;DHT22;54387;53.526;49.300;2022-09-20T13:40:40;19.70;55.80
67557;DHT22;54387;53.526;49.300;2022-09-20T13:46:32;19.30;56.90
67557;DHT22;54387;53.526;49.300;2022-09-20T13:49:18;19.30;57.40
67557;DHT22;54387;53.526;49.300;2022-09-20T13:51:50;19.20;57.60
67557;DHT22;54387;53.526;49.300;2022-09-20T13:54:20;19.10;57.80
67557;DHT22;54387;53.526;49.300;2022-09-20T13:56:48;19.00;58.30
67557;DHT22;54387;53.526;49.300;2022-09-20T13:59:15;18.90;58.70
67557;DHT22;54387;53.526;49.300;2022-09-20T14:01:52;18.80;59.10
67557;DHT22;54387;53.526;49.300;2022-09-20T14:04:22;18.80;59.50
67557;DHT22;54387;53.526;49.300;2022-09-20T14:06:51;18.80;59.70
67557;DHT22;54387;53.526;49.300;2022-09-20T14:09:33;18.80;60.00
67557;DHT22;54387;53.526;49.300;2022-09-20T14:12:02;18.70;60.00
67557;DHT22;54387;53.526;49.300;2022-09-20T14:14:30;18.70;60.10
67557;DHT22;54387;53.526;49.300;2022-09-20T14:16:59;18.60;60.10
67557;DHT22;54387;53.526;49.300;2022-09-20T14:19:32;18.60;60.20
67557;DHT22;54387;53.526;49.300;2022-09-20T14:22:03;18.60;60.30
67557;DHT22;54387;53.526;49.300;2022-09-20T14:24:34;18.50;60.40
67557;DHT22;54387;53.526;49.300;2022-09-20T14:29:37;18.40;60.60
67557;DHT22;54387;53.526;49.300;2022-09-20T14:34:59;18.30;60.90
67557;DHT22;54387;53.526;49.300;2022-09-20T14:37:30;18.30;61.10
67557;DHT22;54387;53.526;49.300;2022-09-20T14:40:22;18.30;61.10
67557;DHT22;54387;53.526;49.300;2022-09-20T14:42:52;18.30;61.20
67557;DHT22;54387;53.526;49.300;2022-09-20T14:45:30;18.20;61.00
67557;DHT22;54387;53.526;49.300;2022-09-20T14:50:41;18.20;61.10
67557;DHT22;54387;53.526;49.300;2022-09-20T14:58:33;18.10;61.20
67557;DHT22;54387;53.526;49.300;2022-09-20T15:01:22;18.10;61.20
67557;DHT22;54387;53.526;49.300;2022-09-20T15:03:50;18.00;61.10
67557;DHT22;54387;53.526;49.300;2022-09-20T15:06:16;18.00;61.10
67557;DHT22;54387;53.526;49.300;2022-09-20T15:08:44;17.90;61.10
67557;DHT22;54387;53.526;49.300;2022-09-20T15:11:17;17.90;61.20
67557;DHT22;54387;53.526;49.300;2022-09-20T15:13:43;17.90;61.40
67557;DHT22;54387;53.526;49.300;2022-09-20T15:16:11;17.80;61.40
67557;DHT22;54387;53.526;49.300;2022-09-20T15:18:42;17.80;61.40
67557;DHT22;54387;53.526;49.300;2022-09-20T15:21:08;17.70;61.40
67557;DHT22;54387;53.526;49.300;2022-09-20T15:23:36;17.60;61.50
67557;DHT22;54387;53.526;49.300;2022-09-20T15:26:03;17.60;61.50
67557;DHT22;54387;53.526;49.300;2022-09-20T15:28:29;17.60;61.60
67557;DHT22;54387;53.526;49.300;2022-09-20T15:30:57;17.60;61.70
67557;DHT22;54387;53.526;49.300;2022-09-20T15:33:23;17.50;61.70
67557;DHT22;54387;53.526;49.300;2022-09-20T15:35:50;17.50;61.80
67557;DHT22;54387;53.526;49.300;2022-09-20T15:38:17;17.50;61.90
67557;DHT22;54387;53.526;49.300;2022-09-20T15:40:46;17.40;61.90
67557;DHT22;54387;53.526;49.300;2022-09-20T15:43:15;17.40;62.00
67557;DHT22;54387;53.526;49.300;2022-09-20T15:48:23;17.40;62.10
67557;DHT22;54387;53.526;49.300;2022-09-20T15:51:07;17.40;62.10
67557;DHT22;54387;53.526;49.300;2022-09-20T15:53:38;17.30;62.20
67557;DHT22;54387;53.526;49.300;2022-09-20T15:56:19;17.40;62.30
67557;DHT22;54387;53.526;49.300;2022-09-20T15:58:49;17.30;62.30
67557;DHT22;54387;53.526;49.300;2022-09-20T16:01:17;17.30;62.30
67557;DHT22;54387;53.526;49.300;2022-09-20T16:03:44;17.20;62.30
67557;DHT22;54387;53.526;49.300;2022-09-20T16:06:11;17.20;62.40
67557;DHT22;54387;53.526;49.300;2022-09-20T16:08:40;17.20;62.40
67557;DHT22;54387;53.526;49.300;2022-09-20T16:11:08;17.20;62.50
67557;DHT22;54387;53.526;49.300;2022-09-20T16:13:34;17.20;62.50
67557;DHT22;54387;53.526;49.300;2022-09-20T16:16:09;17.20;62.60
67557;DHT22;54387;53.526;49.300;2022-09-20T16:18:38;17.20;62.60
67557;DHT22;54387;53.526;49.300;2022-09-20T16:21:23;17.20;62.70
67557;DHT22;54387;53.526;49.300;2022-09-20T16:23:55;17.20;62.70
67557;DHT22;54387;53.526;49.300;2022-09-20T16:26:23;17.20;62.90
67557;DHT22;54387;53.526;49.300;2022-09-20T16:28:50;17.20;63.00
67557;DHT22;54387;53.526;49.300;2022-09-20T16:31:37;17.20;63.00
67557;DHT22;54387;53.526;49.300;2022-09-20T16:34:20;17.20;63.10
67557;DHT22;54387;53.526;49.300;2022-09-20T16:36:48;17.20;63.10
67557;DHT22;54387;53.526;49.300;2022-09-20T16:39:15;17.10;63.20
67557;DHT22;54387;53.526;49.300;2022-09-20T16:41:44;17.10;63.40
67557;DHT22;54387;53.526;49.300;2022-09-20T16:44:11;17.10;63.50
67557;DHT22;54387;53.526;49.300;2022-09-20T16:46:38;17.10;63.60
67557;DHT22;54387;53.526;49.300;2022-09-20T16:49:06;17.10;63.80
67557;DHT22;54387;53.526;49.300;2022-09-20T16:51:39;17.00;63.90
67557;DHT22;54387;53.526;49.300;2022-09-20T16:54:15;17.00;64.10
67557;DHT22;54387;53.526;49.300;2022-09-20T16:56:43;16.90;64.30
67557;DHT22;54387;53.526;49.300;2022-09-20T16:59:10;16.90;64.40
67557;DHT22;54387;53.526;49.300;2022-09-20T17:01:38;16.90;64.60
67557;DHT22;54387;53.526;49.300;2022-09-20T17:04:05;16.80;64.80
67557;DHT22;54387;53.526;49.300;2022-09-20T17:06:34;16.80;65.00
67557;DHT22;54387;53.526;49.300;2022-09-20T17:09:01;16.80;65.20
67557;DHT22;54387;53.526;49.300;2022-09-20T17:11:29;16.80;65.30
67557;DHT22;54387;53.526;49.300;2022-09-20T17:13:56;16.70;65.50
67557;DHT22;54387;53.526;49.300;2022-09-20T17:16:31;16.70;65.60
67557;DHT22;54387;53.526;49.300;2022-09-20T17:19:02;16.60;65.60
67557;DHT22;54387;53.526;49.300;2022-09-20T17:21:29;16.60;65.70
67557;DHT22;54387;53.526;49.300;2022-09-20T17:23:57;16.50;65.90
67557;DHT22;54387;53.526;49.300;2022-09-20T17:26:25;16.50;66.00
67557;DHT22;54387;53.526;49.300;2022-09-20T17:28:54;16.40;66.10
67557;DHT22;54387;53.526;49.300;2022-09-20T17:31:25;16.40;66.30
67557;DHT22;54387;53.526;49.300;2022-09-20T17:33:54;16.30;66.40
67557;DHT22;54387;53.526;49.300;2022-09-20T17:36:28;16.30;66.40
67557;DHT22;54387;53.526;49.300;2022-09-20T17:38:56;16.20;66.50
67557;DHT22;54387;53.526;49.300;2022-09-20T17:41:23;16.20;66.80
67557;DHT22;54387;53.526;49.300;2022-09-20T17:43:57;16.10;66.90
67557;DHT22;54387;53.526;49.300;2022-09-20T17:46:30;16.10;67.00
67557;DHT22;54387;53.526;49.300;2022-09-20T17:48:59;16.00;67.10
67557;DHT22;54387;53.526;49.300;2022-09-20T17:51:37;16.00;67.20
67557;DHT22;54387;53.526;49.300;2022-09-20T17:54:04;16.00;67.40
67557;DHT22;54387;53.526;49.300;2022-09-20T17:56:31;15.90;67.50
67557;DHT22;54387;53.526;49.300;2022-09-20T17:58:59;15.90;67.70
67557;DHT22;54387;53.526;49.300;2022-09-20T18:01:27;15.90;67.80
67557;DHT22;54387;53.526;49.300;2022-09-20T18:03:56;15.80;67.80
67557;DHT22;54387;53.526;49.300;2022-09-20T18:08:57;15.80;68.10
67557;DHT22;54387;53.526;49.300;2022-09-20T18:11:45;15.80;68.20
67557;DHT22;54387;53.526;49.300;2022-09-20T18:14:15;15.70;68.40
67557;DHT22;54387;53.526;49.300;2022-09-20T18:16:42;15.70;68.50
67557;DHT22;54387;53.526;49.300;2022-09-20T18:19:09;15.60;68.50
67557;DHT22;54387;53.526;49.300;2022-09-20T18:21:37;15.60;68.70
67557;DHT22;54387;53.526;49.300;2022-09-20T18:24:05;15.60;68.80
67557;DHT22;54387;53.526;49.300;2022-09-20T18:26:31;15.70;68.90
67557;DHT22;54387;53.526;49.300;2022-09-20T18:31:27;15.70;69.00
67557;DHT22;54387;53.526;49.300;2022-09-20T18:33:58;15.80;69.10
67557;DHT22;54387;53.526;49.300;2022-09-20T18:36:29;15.80;69.00
67557;DHT22;54387;53.526;49.300;2022-09-20T18:38:56;15.80;68.90
67557;DHT22;54387;53.526;49.300;2022-09-20T18:41:25;15.80;68.90
67557;DHT22;54387;53.526;49.300;2022-09-20T18:43:53;15.80;68.90
67557;DHT22;54387;53.526;49.300;2022-09-20T18:46:20;15.80;68.90
67557;DHT22;54387;53.526;49.300;2022-09-20T18:48:53;15.80;68.90
67557;DHT22;54387;53.526;49.300;2022-09-20T18:51:21;15.70;69.00
67557;DHT22;54387;53.526;49.300;2022-09-20T18:53:49;15.70;69.20
67557;DHT22;54387;53.526;49.300;2022-09-20T18:58:52;15.70;69.40
67557;DHT22;54387;53.526;49.300;2022-09-20T19:01:24;15.70;69.50
67557;DHT22;54387;53.526;49.300;2022-09-20T19:12:42;15.50;69.70
67557;DHT22;54387;53.526;49.300;2022-09-20T19:15:35;15.50;69.80
67557;DHT22;54387;53.526;49.300;2022-09-20T19:26:20;15.60;70.10
67557;DHT22;54387;53.526;49.300;2022-09-20T19:28:52;15.70;70.10
67557;DHT22;54387;53.526;49.300;2022-09-20T19:31:32;15.70;70.20
67557;DHT22;54387;53.526;49.300;2022-09-20T19:34:02;15.70;70.10
67557;DHT22;54387;53.526;49.300;2022-09-20T19:39:14;15.90;70.00
67557;DHT22;54387;53.526;49.300;2022-09-20T19:44:43;16.00;69.90
67557;DHT22;54387;53.526;49.300;2022-09-20T19:47:35;16.00;69.80
67557;DHT22;54387;53.526;49.300;2022-09-20T19:52:28;16.10;69.80
67557;DHT22;54387;53.526;49.300;2022-09-20T19:54:55;16.10;69.80
67557;DHT22;54387;53.526;49.300;2022-09-20T19:57:25;16.10;69.70
67557;DHT22;54387;53.526;49.300;2022-09-20T19:59:54;16.20;69.70
67557;DHT22;54387;53.526;49.300;2022-09-20T20:02:22;16.20;69.60
67557;DHT22;54387;53.526;49.300;2022-09-20T20:04:48;16.20;69.40
67557;DHT22;54387;53.526;49.300;2022-09-20T20:07:26;16.20;69.40
67557;DHT22;54387;53.526;49.300;2022-09-20T20:15:40;16.20;69.40
67557;DHT22;54387;53.526;49.300;2022-09-20T20:18:52;16.20;69.30
67557;DHT22;54387;53.526;49.300;2022-09-20T20:21:25;16.20;69.20
67557;DHT22;54387;53.526;49.300;2022-09-20T20:24:01;16.10;69.20
67557;DHT22;54387;53.526;49.300;2022-09-20T20:26:32;16.10;69.20
67557;DHT22;54387;53.526;49.300;2022-09-20T20:28:58;16.10;69.20
67557;DHT22;54387;53.526;49.300;2022-09-20T20:31:24;16.10;69.20
67557;DHT22;54387;53.526;49.300;2022-09-20T20:33:50;16.00;69.20
67557;DHT22;54387;53.526;49.300;2022-09-20T20:36:18;16.00;69.20
67557;DHT22;54387;53.526;49.300;2022-09-20T20:38:45;16.00;69.20
67557;DHT22;54387;53.526;49.300;2022-09-20T20:41:17;16.00;69.30
67557;DHT22;54387;53.526;49.300;2022-09-20T20:43:44;16.00;69.30
67557;DHT22;54387;53.526;49.300;2022-09-20T20:46:14;16.00;69.30
67557;DHT22;54387;53.526;49.300;2022-09-20T20:48:41;16.00;69.30
67557;DHT22;54387;53.526;49.300;2022-09-20T20:51:16;16.00;69.90
67557;DHT22;54387;53.526;49.300;2022-09-20T20:53:48;16.00;69.40
67557;DHT22;54387;53.526;49.300;2022-09-20T20:56:22;16.00;69.30
67557;DHT22;54387;53.526;49.300;2022-09-20T20:58:50;16.10;69.80
67557;DHT22;54387;53.526;49.300;2022-09-20T21:01:19;16.10;69.30
67557;DHT22;54387;53.526;49.300;2022-09-20T21:03:48;16.10;69.30
67557;DHT22;54387;53.526;49.300;2022-09-20T21:06:15;16.10;69.20
67557;DHT22;54387;53.526;49.300;2022-09-20T21:08:44;16.10;69.20
67557;DHT22;54387;53.526;49.300;2022-09-20T21:11:12;16.10;69.20
67557;DHT22;54387;53.526;49.300;2022-09-20T21:13:39;16.10;69.30
67557;DHT22;54387;53.526;49.300;2022-09-20T21:16:14;16.10;69.20
67557;DHT22;54387;53.526;49.300;2022-09-20T21:18:42;16.20;69.30